Main page
METAR-TAF:

METAR-TAF

Airports :

Manitowoc County Airport

Manitowoc, Wisconsin, United States

latitude: 44-08N, longitude: 087-41W, elevation: 649 ft

Current weather observation

The report was made 57 minutes ago, at 18:56 UTC
Wind 7 mph from the North
Temperature 43°F
Humidity 52%
Pressure 30.33 in. Hg
Visibility: 10 miles
Clear sky

METAR: KMTW 241856Z AUTO 01006KT 10SM CLR 06/M03 A3033 RMK AO2 SLP277 T00561033

Time: 14:53 (19:53 UTC)

Forecast

The report was made 2 hours and 33 minutes ago, at 17:20 UTC
Forecast valid from 24 at 18 UTC to 25 at 18 UTC
Wind 10 mph from the Northeast
Visibility: 6 miles
Clear sky
From 24 at 2300 UTC
Wind 8 mph from the East
Visibility: 6 miles
Clear sky
From 25 at 0300 UTC
Wind 6 mph from the East/Southeast
Visibility: 6 miles
Clear sky
From 25 at 0600 UTC
Wind 3 mph from variable directions
Visibility: 6 miles
Clear sky

TAF: KMTW 241720Z 2418/2518 05009KT P6SM SKC FM242300 08007KT P6SM SKC FM250300 12005KT P6SM SKC FM250600 VRB03KT P6SM SKC

Weather observations and forecasts of more than 4000 airports (METAR and TAF reports).

The available stations are represented by yellow and red dots on the map.

Hover mouse over dot to see the name of the station.

Then click to see weather observations and forecasts.

To change the map : click on the green buttons with a black cross to zoom in, on the green button with a dash to zoom out, or on the green arrows for adjacent maps.


METAR-TAF: